If you wish to contribute or participate in the discussions about articles you are invited to join SKYbrary as a registered user

 Actions

Helsinki/Vantaa

From SKYbrary Wiki

EFHK /
Revision as of 14:09, 12 April 2010 by Editor1 (talk | contribs) (Created page with '{{Airport |Airport_Name=Helsinki/Vantaa |ICAO_Region=EUR |ICAO_Territory=EF |Location=Helsinki, Finland |Coordinates=60° 19′ 0″ N, 24° 57′ 80″ E }} __NOTOC__ =Helsinki…')
(diff) ← Older revision | Latest revision (diff) | Newer revision → (diff)
Airport
ICAO: EFHK
Summary
Name Helsinki/Vantaa
Region Europe
Territory Finland FI.gif
Location Helsinki, Finland
Serving
Coordinates 60° 19' 0.00" N, 24° 58' 20.00" E
Runways
Designator Length Width Surface ROPS
04L/22R 3060 m10,039.37 ft <br /> 60 m196.85 ft <br /> ASP yes/yes
04R/22L 3440 m11,286.089 ft <br /> 60 m196.85 ft <br /> ASP yes/yes
15/33 2901 m9,517.717 ft <br /> 60 m196.85 ft <br /> ASP yes/yes


METAR
Observation EFHK 260350Z 27012KT 9999 -DZ BKN007 03/02 Q1000 NOSIG
Station Helsinki-Vantaa
Date/Time 26 February 2021 03:50:00
Wind direction 270°
Wind speed 12 kts
Lowest cloud amount broken clouds
Temperature 3°C
Dew point 2°C
Humidity 93%
QNH 1000 hPa
Weather condition light drizzle


Helsinki/Vantaa Airport

ICAO: EFHK IATA: HEL

Description

International airport serving...

Climatology

Maps

Terrain

Loading map...

Airport Layout

Loading map...

Accidents & Serious Incidents at or in vicinity of EFHK